3TX7 weather

Flying P Airport
Justin, Texas, United States

Public forecast

Using degrees Fahrenheit for public forecast. Weather courtesy of forecast.io.

METAR (pilot weather report)

Closest report is Denton Municipal Airport, 9.4 nm (17.4 km) ENE. Retrieved 2019/07/23 15:53 UTC (50 minutes ago):

KDTO 231553Z 03013G18KT 10SM CLR 29/16 A3017 RMK AO2 SLP208 T02890161

TAF (pilot weather forecast)

Closest forecast is Fort Worth Alliance Airport, 9.6 nm (17.7 km) SSE. Retrieved 2019/07/23 12:22 UTC (4 hours ago):

TAF KAFW 231120Z 2312/2412 01010KT P6SM FEW060 SCT250